Time;durP1;ratioP1;P1;durP2;ratioP2;P2;SDS_P1;SDS_P2;PMS_P1;PMS_P2;Temp;Humidity;BMP_temperature;BMP_pressure;BME280_temperature;BME280_humidity;BME280_pressure;Samples;Min_cycle;Max_cycle;Signal;HPM_P1;HPM_P2
2023/09/09 00:00:35;;;;;;;12.68;9.98;;;15.70;99.90;;;;;;5011795;28;20273;-61
2023/09/09 00:03:00;;;;;;;12.88;9.32;;;15.60;99.90;;;;;;5012817;28;20487;-60
2023/09/09 00:05:29;;;;;;;15.57;9.02;;;15.60;99.90;;;;;;5028555;28;20029;-60
2023/09/09 00:07:55;;;;;;;11.35;8.88;;;15.60;99.90;;;;;;5029393;28;20021;-60
2023/09/09 00:10:20;;;;;;;10.45;8.23;;;15.60;99.90;;;;;;5028926;28;20052;-60
2023/09/09 00:12:46;;;;;;;13.27;9.05;;;15.60;99.90;;;;;;5029078;28;20116;-60
2023/09/09 00:15:11;;;;;;;12.60;9.45;;;15.60;99.90;;;;;;5023065;28;20050;-60
2023/09/09 00:17:37;;;;;;;15.88;10.27;;;15.50;99.90;;;;;;5006408;28;20033;-60
2023/09/09 00:20:06;;;;;;;12.65;8.93;;;15.50;99.90;;;;;;5028815;28;20021;-60
2023/09/09 00:22:31;;;;;;;10.30;8.48;;;15.50;99.90;;;;;;5028987;28;20030;-61
2023/09/09 00:24:57;;;;;;;12.10;9.30;;;15.40;99.90;;;;;;5028291;28;20433;-61
2023/09/09 00:27:22;;;;;;;10.73;8.00;;;15.50;99.90;;;;;;5026005;28;20038;-61
2023/09/09 00:29:48;;;;;;;14.45;8.85;;;15.40;99.90;;;;;;5028490;28;20518;-61
2023/09/09 00:32:13;;;;;;;12.10;9.23;;;15.40;99.90;;;;;;5029109;28;20036;-61
2023/09/09 00:34:39;;;;;;;11.65;8.85;;;15.50;99.90;;;;;;5020062;28;20022;-60
2023/09/09 00:37:04;;;;;;;14.50;9.98;;;15.40;99.90;;;;;;5024775;28;20022;-60
2023/09/09 00:39:30;;;;;;;11.15;8.95;;;15.40;99.90;;;;;;5029488;28;20034;-61
2023/09/09 00:41:56;;;;;;;13.00;9.05;;;15.40;99.90;;;;;;5032929;28;20021;-62
2023/09/09 00:44:21;;;;;;;10.90;8.70;;;15.30;99.90;;;;;;5033174;28;20222;-61
2023/09/09 00:46:47;;;;;;;13.90;9.27;;;15.20;99.90;;;;;;5026057;28;20026;-61
2023/09/09 00:49:13;;;;;;;13.07;8.50;;;15.20;99.90;;;;;;5020837;28;20049;-62
2023/09/09 00:51:39;;;;;;;12.05;8.43;;;15.20;99.90;;;;;;5012720;28;20034;-62
2023/09/09 00:54:05;;;;;;;11.98;8.57;;;15.20;99.90;;;;;;5013060;28;20018;-63
2023/09/09 00:56:33;;;;;;;10.32;8.40;;;15.10;99.90;;;;;;5019854;28;20029;-64
2023/09/09 00:58:58;;;;;;;11.45;9.07;;;15.10;99.90;;;;;;5032475;28;20032;-62
2023/09/09 01:01:24;;;;;;;9.70;7.75;;;15.00;99.90;;;;;;5032286;28;20056;-61
2023/09/09 01:03:53;;;;;;;14.07;9.77;;;15.00;99.90;;;;;;5032275;28;20505;-62
2023/09/09 01:06:20;;;;;;;9.68;8.32;;;15.00;99.90;;;;;;5031425;28;20017;-62
2023/09/09 01:08:46;;;;;;;10.98;8.80;;;14.90;99.90;;;;;;5026125;28;20048;-61
2023/09/09 01:11:11;;;;;;;13.40;9.07;;;14.90;99.90;;;;;;5031717;28;20018;-61
2023/09/09 01:13:37;;;;;;;11.35;9.45;;;14.90;99.90;;;;;;5032208;28;20022;-62
2023/09/09 01:16:03;;;;;;;13.93;10.73;;;14.90;99.90;;;;;;5032431;28;20025;-62
2023/09/09 01:18:31;;;;;;;12.82;9.70;;;14.90;99.90;;;;;;5028589;28;20116;-62
2023/09/09 01:21:06;;;;;;;11.38;9.27;;;14.80;99.90;;;;;;5031725;28;20055;-62
2023/09/09 01:23:32;;;;;;;10.80;8.02;;;14.80;99.90;;;;;;5023770;28;20483;-61
2023/09/09 01:25:58;;;;;;;13.57;9.10;;;14.80;99.90;;;;;;5031939;28;20071;-62
2023/09/09 01:28:24;;;;;;;10.27;8.07;;;14.80;99.90;;;;;;5025261;28;20108;-62
2023/09/09 01:30:50;;;;;;;12.38;9.10;;;14.80;99.90;;;;;;5029787;28;20112;-62
2023/09/09 01:33:16;;;;;;;13.02;9.38;;;14.80;99.90;;;;;;5031558;28;20023;-61
2023/09/09 01:35:41;;;;;;;14.60;9.07;;;14.80;99.90;;;;;;5031667;28;20036;-62
2023/09/09 01:38:06;;;;;;;9.85;8.82;;;14.70;99.90;;;;;;5027309;28;20026;-62
2023/09/09 01:40:32;;;;;;;16.02;9.18;;;14.60;99.90;;;;;;5025788;28;20113;-62
2023/09/09 01:42:57;;;;;;;11.90;8.80;;;14.60;99.90;;;;;;5031785;28;20365;-62
2023/09/09 01:45:23;;;;;;;11.40;8.73;;;14.60;99.90;;;;;;5031767;28;20033;-62
2023/09/09 01:47:49;;;;;;;13.15;9.35;;;14.50;99.90;;;;;;5030230;28;20025;-62
2023/09/09 01:50:14;;;;;;;12.25;8.70;;;14.50;99.90;;;;;;5041058;28;20049;-62
2023/09/09 01:52:40;;;;;;;10.93;8.95;;;14.50;99.90;;;;;;5030669;28;20030;-62
2023/09/09 01:55:06;;;;;;;12.75;8.77;;;14.40;99.90;;;;;;5031884;28;20025;-62
2023/09/09 01:57:31;;;;;;;11.82;8.77;;;14.40;99.90;;;;;;5031454;28;20044;-62
2023/09/09 01:59:58;;;;;;;11.25;8.63;;;14.40;99.90;;;;;;5017783;28;20520;-62
2023/09/09 02:02:23;;;;;;;10.02;8.50;;;14.30;99.90;;;;;;5026223;28;20053;-61
2023/09/09 02:04:49;;;;;;;13.27;10.32;;;14.30;99.90;;;;;;5031196;28;20643;-62
2023/09/09 02:07:14;;;;;;;10.88;8.43;;;14.30;99.90;;;;;;5030530;28;20033;-62
2023/09/09 02:09:41;;;;;;;10.75;8.30;;;14.30;99.90;;;;;;5029106;28;20076;-62
2023/09/09 02:12:07;;;;;;;12.57;7.82;;;14.30;99.90;;;;;;5031215;28;20383;-62
2023/09/09 02:14:33;;;;;;;11.82;9.15;;;14.20;99.90;;;;;;5030794;28;20035;-64
2023/09/09 02:16:58;;;;;;;10.85;9.27;;;14.20;99.90;;;;;;5029951;28;20033;-63
2023/09/09 02:19:24;;;;;;;13.95;10.05;;;14.20;99.90;;;;;;5024455;28;20061;-62
2023/09/09 02:21:50;;;;;;;12.30;9.18;;;14.40;99.90;;;;;;5031140;28;20100;-62
2023/09/09 02:24:16;;;;;;;12.73;9.40;;;14.40;99.90;;;;;;5029670;28;20095;-63
2023/09/09 02:26:41;;;;;;;12.45;9.40;;;14.30;99.90;;;;;;5030682;28;20021;-62
2023/09/09 02:29:07;;;;;;;10.43;9.32;;;14.30;99.90;;;;;;5041995;28;20028;-63
2023/09/09 02:31:32;;;;;;;12.75;10.15;;;14.30;99.90;;;;;;5029147;28;20499;-62
2023/09/09 02:33:58;;;;;;;11.15;9.38;;;14.30;99.90;;;;;;5045873;28;20639;-64
2023/09/09 02:36:23;;;;;;;17.48;9.23;;;14.20;99.90;;;;;;5030709;28;20056;-64
2023/09/09 02:38:49;;;;;;;16.80;9.65;;;14.30;99.90;;;;;;5029154;28;20075;-64
2023/09/09 02:41:14;;;;;;;16.80;10.93;;;14.30;99.90;;;;;;5030250;28;20057;-63
2023/09/09 02:43:40;;;;;;;13.80;10.95;;;14.40;99.90;;;;;;5012341;28;20441;-64
2023/09/09 02:46:06;;;;;;;17.80;10.48;;;14.40;99.90;;;;;;5030197;28;20029;-63
2023/09/09 02:48:32;;;;;;;11.80;9.65;;;14.40;99.90;;;;;;5028138;28;20022;-63
2023/09/09 02:50:57;;;;;;;12.98;10.13;;;14.30;99.90;;;;;;5024212;28;20037;-63
2023/09/09 02:53:23;;;;;;;13.20;10.20;;;14.30;99.90;;;;;;5030334;28;20017;-63
2023/09/09 02:55:48;;;;;;;11.43;9.50;;;14.30;99.90;;;;;;5030323;28;20386;-63
2023/09/09 02:58:14;;;;;;;15.68;9.88;;;14.30;99.90;;;;;;5029821;28;20040;-63
2023/09/09 03:00:40;;;;;;;15.02;9.75;;;14.30;99.90;;;;;;5020471;28;20030;-63
2023/09/09 03:03:06;;;;;;;17.65;10.35;;;14.30;99.90;;;;;;5030284;28;20426;-62
2023/09/09 03:05:36;;;;;;;14.10;9.90;;;14.30;99.90;;;;;;5030126;28;20025;-63
2023/09/09 03:08:03;;;;;;;19.60;12.23;;;14.20;99.90;;;;;;5030193;28;20102;-63
2023/09/09 03:10:29;;;;;;;18.98;12.38;;;14.30;99.90;;;;;;5025336;28;20693;-63
2023/09/09 03:12:56;;;;;;;16.13;11.73;;;14.40;99.90;;;;;;5022204;28;20025;-63
2023/09/09 03:15:22;;;;;;;13.23;11.55;;;14.30;99.90;;;;;;5028867;28;20022;-62
2023/09/09 03:17:48;;;;;;;14.00;10.63;;;14.30;99.90;;;;;;5030337;28;20017;-62
2023/09/09 03:20:14;;;;;;;14.65;10.73;;;14.40;99.90;;;;;;5028315;28;20128;-62
2023/09/09 03:22:39;;;;;;;15.27;10.68;;;14.30;99.90;;;;;;5028502;28;20052;-62
2023/09/09 03:25:06;;;;;;;12.77;10.27;;;14.20;99.90;;;;;;5029679;28;20029;-63
2023/09/09 03:27:32;;;;;;;13.65;9.75;;;14.20;99.90;;;;;;5029859;28;20475;-62
2023/09/09 03:29:58;;;;;;;14.15;10.77;;;14.10;99.90;;;;;;5044231;28;20037;-62
2023/09/09 03:32:25;;;;;;;14.88;9.90;;;14.00;99.90;;;;;;5023000;28;20117;-62
2023/09/09 03:34:51;;;;;;;12.88;10.20;;;13.90;99.90;;;;;;5029559;28;20529;-62
2023/09/09 03:37:17;;;;;;;14.20;10.80;;;13.80;99.90;;;;;;5029561;28;20037;-63
2023/09/09 03:39:42;;;;;;;11.70;9.52;;;13.80;99.90;;;;;;5044097;28;20214;-63
2023/09/09 03:42:08;;;;;;;16.73;10.43;;;13.70;99.90;;;;;;5020956;28;20036;-63
2023/09/09 03:44:34;;;;;;;12.05;9.93;;;13.70;99.90;;;;;;5029055;28;20121;-63
2023/09/09 03:46:59;;;;;;;12.65;10.35;;;13.70;99.90;;;;;;5029443;28;20032;-62
2023/09/09 03:49:25;;;;;;;11.57;9.90;;;13.70;99.90;;;;;;5044253;28;20025;-63
2023/09/09 03:51:51;;;;;;;15.80;10.82;;;13.80;99.90;;;;;;5043688;28;20029;-63
2023/09/09 03:54:17;;;;;;;16.15;10.05;;;13.80;99.90;;;;;;5029230;28;20399;-63
2023/09/09 03:56:42;;;;;;;13.55;10.68;;;13.90;99.90;;;;;;5029454;28;20483;-62
2023/09/09 03:59:08;;;;;;;11.15;9.70;;;13.80;99.90;;;;;;5028799;28;20029;-62
2023/09/09 04:01:36;;;;;;;17.23;10.02;;;13.80;99.90;;;;;;5028756;28;20025;-62
2023/09/09 04:04:02;;;;;;;14.90;9.73;;;13.80;99.90;;;;;;5024851;28;20542;-63
2023/09/09 04:06:28;;;;;;;12.45;9.52;;;13.70;99.90;;;;;;5029143;28;20104;-63
2023/09/09 04:08:56;;;;;;;11.80;9.18;;;13.60;99.90;;;;;;5029089;28;20547;-62
2023/09/09 04:11:22;;;;;;;9.25;8.32;;;13.60;99.90;;;;;;5018793;28;20030;-62
2023/09/09 04:13:48;;;;;;;13.60;9.73;;;13.60;99.90;;;;;;5028977;28;20030;-62
2023/09/09 04:16:13;;;;;;;12.43;9.77;;;13.60;99.90;;;;;;5033371;28;20025;-62
2023/09/09 04:18:39;;;;;;;14.57;9.40;;;13.50;99.90;;;;;;5048294;28;20032;-62
2023/09/09 04:21:04;;;;;;;11.05;9.63;;;13.40;99.90;;;;;;5032195;28;20029;-63
2023/09/09 04:23:30;;;;;;;16.23;12.45;;;13.40;99.90;;;;;;5031854;28;20029;-64
2023/09/09 04:25:55;;;;;;;15.85;11.93;;;13.40;99.90;;;;;;5030955;28;20029;-64
2023/09/09 04:28:21;;;;;;;16.85;11.90;;;13.30;99.90;;;;;;5032102;28;20026;-64
2023/09/09 04:30:46;;;;;;;15.10;12.02;;;13.30;99.90;;;;;;5032473;28;20017;-64
2023/09/09 04:33:12;;;;;;;16.50;12.68;;;13.30;99.90;;;;;;5031948;28;20030;-64
2023/09/09 04:35:42;;;;;;;17.73;12.25;;;13.30;99.90;;;;;;5026556;28;20018;-64
2023/09/09 04:38:09;;;;;;;14.95;10.75;;;13.40;99.90;;;;;;5031607;28;20514;-64
2023/09/09 04:40:34;;;;;;;15.30;9.70;;;13.50;99.90;;;;;;5032256;28;20025;-64
2023/09/09 04:43:00;;;;;;;12.13;9.77;;;13.50;99.90;;;;;;5047354;28;20021;-64
2023/09/09 04:45:26;;;;;;;12.75;10.27;;;13.50;99.90;;;;;;5019008;28;20434;-62
2023/09/09 04:47:52;;;;;;;14.35;9.77;;;13.40;99.90;;;;;;5032781;28;20479;-62
2023/09/09 04:50:20;;;;;;;13.15;9.77;;;13.40;99.90;;;;;;5032166;28;20020;-63
2023/09/09 04:52:47;;;;;;;12.55;9.82;;;13.40;99.90;;;;;;5032563;28;20079;-62
2023/09/09 04:55:13;;;;;;;12.65;9.88;;;13.40;99.90;;;;;;5027213;28;20044;-62
2023/09/09 04:57:40;;;;;;;11.35;9.25;;;13.30;99.90;;;;;;5032832;28;20406;-64
2023/09/09 05:00:07;;;;;;;13.93;10.15;;;13.30;99.90;;;;;;5032034;28;20458;-63
2023/09/09 05:02:39;;;;;;;13.48;10.35;;;13.30;99.90;;;;;;5032597;28;20041;-62
2023/09/09 05:05:05;;;;;;;15.18;10.07;;;13.20;99.90;;;;;;5028934;28;20108;-62
2023/09/09 05:07:32;;;;;;;15.52;10.65;;;13.20;99.90;;;;;;5026326;28;20491;-61
2023/09/09 05:09:57;;;;;;;12.23;9.35;;;13.20;99.90;;;;;;5031682;28;20490;-62
2023/09/09 05:12:23;;;;;;;17.42;9.75;;;13.30;99.90;;;;;;5032083;28;20036;-63
2023/09/09 05:14:48;;;;;;;15.02;10.10;;;13.40;99.90;;;;;;5031521;28;20021;-64
2023/09/09 05:17:14;;;;;;;12.02;9.35;;;13.40;99.90;;;;;;5024035;28;20060;-63
2023/09/09 05:19:39;;;;;;;14.45;9.85;;;13.40;99.90;;;;;;5026244;28;20101;-63
2023/09/09 05:22:05;;;;;;;10.60;8.55;;;13.50;99.90;;;;;;5030582;28;20075;-64
2023/09/09 05:24:30;;;;;;;12.27;9.93;;;13.40;99.90;;;;;;5032143;28;20032;-63
2023/09/09 05:26:56;;;;;;;14.45;11.15;;;13.50;99.90;;;;;;5030039;28;20544;-63
2023/09/09 05:29:21;;;;;;;12.63;9.25;;;13.50;99.90;;;;;;5023966;28;20029;-64
2023/09/09 05:31:47;;;;;;;14.80;10.02;;;13.50;99.90;;;;;;5032055;28;20387;-62
2023/09/09 05:34:12;;;;;;;12.73;9.93;;;13.60;99.90;;;;;;5031900;28;20026;-62
2023/09/09 05:36:38;;;;;;;14.57;10.85;;;13.60;99.90;;;;;;5027663;28;20018;-62
2023/09/09 05:39:04;;;;;;;15.73;10.20;;;13.70;99.90;;;;;;5024126;28;20034;-63
2023/09/09 05:41:29;;;;;;;13.70;9.13;;;13.80;99.90;;;;;;5018538;28;20014;-63
2023/09/09 05:43:55;;;;;;;11.93;10.10;;;13.80;99.90;;;;;;5011752;28;20033;-63
2023/09/09 05:46:21;;;;;;;12.00;10.25;;;13.90;99.90;;;;;;5016341;28;20075;-63
2023/09/09 05:48:46;;;;;;;13.07;10.23;;;14.00;99.90;;;;;;5028863;28;20378;-63
2023/09/09 05:51:12;;;;;;;15.07;10.18;;;14.10;99.90;;;;;;5026999;28;20032;-63
2023/09/09 05:53:38;;;;;;;11.55;9.13;;;14.10;99.90;;;;;;5030029;28;20097;-61
2023/09/09 05:56:03;;;;;;;14.00;10.02;;;14.20;99.90;;;;;;5031113;28;20029;-61
2023/09/09 05:58:29;;;;;;;13.50;10.50;;;14.20;99.90;;;;;;5038924;28;20010;-61
2023/09/09 06:00:54;;;;;;;12.32;9.93;;;14.30;99.90;;;;;;5022388;28;20103;-61
2023/09/09 06:03:20;;;;;;;14.43;10.63;;;14.40;99.90;;;;;;5031060;28;20030;-61
2023/09/09 06:05:46;;;;;;;10.40;9.27;;;14.40;99.90;;;;;;5031086;28;20034;-61
2023/09/09 06:08:12;;;;;;;10.77;9.07;;;14.50;99.90;;;;;;5031132;28;20556;-61
2023/09/09 06:10:38;;;;;;;10.45;8.60;;;14.50;99.90;;;;;;5029311;28;20037;-61
2023/09/09 06:13:03;;;;;;;11.05;8.68;;;14.50;99.90;;;;;;5030879;28;20029;-61
2023/09/09 06:15:29;;;;;;;14.20;9.10;;;14.60;99.90;;;;;;5030186;28;20034;-61
2023/09/09 06:17:57;;;;;;;10.95;8.85;;;14.70;99.90;;;;;;5029307;28;20025;-61
2023/09/09 06:20:22;;;;;;;11.90;8.80;;;14.70;99.90;;;;;;5027773;28;20443;-61
2023/09/09 06:22:48;;;;;;;11.65;8.98;;;14.80;99.90;;;;;;5026893;28;20064;-61
2023/09/09 06:25:14;;;;;;;9.82;8.30;;;14.90;99.90;;;;;;5029544;28;20064;-61
2023/09/09 06:27:39;;;;;;;11.93;9.27;;;15.00;99.90;;;;;;5029598;28;20100;-61
2023/09/09 06:30:06;;;;;;;10.40;8.60;;;15.10;99.90;;;;;;5028448;28;20055;-61
2023/09/09 06:32:31;;;;;;;11.27;9.23;;;15.20;99.90;;;;;;5022115;28;20025;-61
2023/09/09 06:34:57;;;;;;;11.55;8.65;;;15.20;99.90;;;;;;5030716;28;20026;-61
2023/09/09 06:37:23;;;;;;;11.25;9.63;;;15.30;99.90;;;;;;5030639;28;20033;-61
2023/09/09 06:39:49;;;;;;;9.80;8.77;;;15.40;99.90;;;;;;5030431;28;20065;-61
2023/09/09 06:42:14;;;;;;;11.10;9.02;;;15.50;99.90;;;;;;5025397;28;20528;-61
2023/09/09 06:44:40;;;;;;;13.68;9.80;;;15.50;99.90;;;;;;5030621;28;20395;-61
2023/09/09 06:47:05;;;;;;;10.90;9.07;;;15.60;99.90;;;;;;5030625;28;20040;-61
2023/09/09 06:49:31;;;;;;;11.82;9.00;;;15.70;99.90;;;;;;5030082;28;20025;-61
2023/09/09 06:51:57;;;;;;;10.93;9.13;;;15.80;99.90;;;;;;5028691;28;20144;-61
2023/09/09 06:54:22;;;;;;;11.23;8.82;;;15.80;99.90;;;;;;5030032;28;20036;-61
2023/09/09 06:56:48;;;;;;;11.00;8.90;;;16.00;99.90;;;;;;5022921;28;20053;-61
2023/09/09 06:59:13;;;;;;;13.50;9.45;;;16.10;99.90;;;;;;5025880;28;20104;-61
2023/09/09 07:01:39;;;;;;;11.63;9.25;;;16.20;99.90;;;;;;5021904;28;20034;-61
2023/09/09 07:04:05;;;;;;;11.68;9.57;;;16.30;99.90;;;;;;5016039;28;20384;-61
2023/09/09 07:06:30;;;;;;;10.20;8.70;;;16.40;99.90;;;;;;5021384;28;20040;-61
2023/09/09 07:08:56;;;;;;;11.88;9.93;;;16.50;99.90;;;;;;5045354;28;20029;-62
2023/09/09 07:11:21;;;;;;;12.73;10.38;;;16.60;99.90;;;;;;5021426;28;20117;-61
2023/09/09 07:13:47;;;;;;;12.07;9.77;;;16.70;99.90;;;;;;5026168;28;20045;-61
2023/09/09 07:16:12;;;;;;;12.32;9.93;;;16.90;99.90;;;;;;5029662;28;20755;-61
2023/09/09 07:18:38;;;;;;;11.50;9.30;;;17.00;99.90;;;;;;5022083;28;20510;-61
2023/09/09 07:21:03;;;;;;;13.30;8.98;;;17.20;99.90;;;;;;5044169;28;20112;-61
2023/09/09 07:23:29;;;;;;;9.75;8.05;;;17.40;99.90;;;;;;5025849;28;20029;-61
2023/09/09 07:25:54;;;;;;;10.38;8.70;;;17.80;99.90;;;;;;5021769;28;20021;-61
2023/09/09 07:28:22;;;;;;;10.60;7.68;;;18.40;99.90;;;;;;5028869;28;20164;-61
2023/09/09 07:30:48;;;;;;;10.23;7.60;;;18.90;99.90;;;;;;5022316;28;20079;-61
2023/09/09 07:33:13;;;;;;;9.82;8.25;;;19.10;99.90;;;;;;5019787;28;20331;-61
2023/09/09 07:35:39;;;;;;;10.05;8.73;;;19.10;99.90;;;;;;5029752;28;20429;-61
2023/09/09 07:38:06;;;;;;;9.02;8.10;;;19.10;99.90;;;;;;5029524;28;20084;-61
2023/09/09 07:40:31;;;;;;;9.98;8.68;;;19.20;99.90;;;;;;5027078;28;20513;-61
2023/09/09 07:42:57;;;;;;;11.25;8.23;;;19.20;99.90;;;;;;5025341;28;20030;-61
2023/09/09 07:45:23;;;;;;;9.95;8.73;;;19.20;99.90;;;;;;5027567;28;20044;-61
2023/09/09 07:47:48;;;;;;;11.23;8.23;;;19.30;99.90;;;;;;5044720;28;20483;-61
2023/09/09 07:50:14;;;;;;;10.93;8.07;;;19.40;99.90;;;;;;5028690;28;20118;-61
2023/09/09 07:52:40;;;;;;;11.30;8.43;;;19.50;99.90;;;;;;5029024;28;20069;-61
2023/09/09 07:55:06;;;;;;;16.63;8.45;;;19.90;99.90;;;;;;5025967;28;20053;-61
2023/09/09 07:57:31;;;;;;;10.00;7.97;;;20.70;99.90;;;;;;5042821;28;20087;-62
2023/09/09 07:59:57;;;;;;;11.07;7.55;;;21.50;99.90;;;;;;5019253;28;20026;-62
2023/09/09 08:02:22;;;;;;;8.85;7.40;;;22.40;99.90;;;;;;5016463;28;20438;-62
2023/09/09 08:04:48;;;;;;;7.95;7.15;;;22.90;99.90;;;;;;5032889;28;20010;-62
2023/09/09 08:07:13;;;;;;;8.35;6.70;;;23.30;99.90;;;;;;5018884;28;20033;-62
2023/09/09 08:09:39;;;;;;;10.20;7.00;;;23.60;99.90;;;;;;5018717;28;20499;-61
2023/09/09 08:12:05;;;;;;;8.63;6.68;;;23.70;99.90;;;;;;5017413;28;20033;-61
2023/09/09 08:14:30;;;;;;;8.70;7.10;;;23.90;99.90;;;;;;5019372;28;20419;-62
2023/09/09 08:16:56;;;;;;;9.32;6.97;;;24.40;99.90;;;;;;5022134;28;20022;-62
2023/09/09 08:19:21;;;;;;;9.48;6.43;;;25.30;99.90;;;;;;5027652;28;20022;-62
2023/09/09 08:21:47;;;;;;;9.10;6.05;;;26.40;98.70;;;;;;5019473;28;20037;-63
2023/09/09 08:24:12;;;;;;;8.20;6.25;;;27.60;96.90;;;;;;5027912;28;20030;-63
2023/09/09 08:26:38;;;;;;;7.85;6.10;;;29.00;94.10;;;;;;5022503;28;20026;-63
2023/09/09 08:29:04;;;;;;;7.15;5.20;;;30.50;90.80;;;;;;5020238;28;20380;-63
2023/09/09 08:31:30;;;;;;;6.72;4.90;;;31.80;87.90;;;;;;5022542;28;20017;-64
2023/09/09 08:33:55;;;;;;;5.53;5.03;;;33.20;82.20;;;;;;5030114;28;20053;-64
2023/09/09 08:36:21;;;;;;;10.80;6.03;;;34.50;77.90;;;;;;5029048;28;20052;-64
2023/09/09 08:38:46;;;;;;;9.50;5.65;;;35.50;74.10;;;;;;5030140;28;20677;-64
2023/09/09 08:41:25;;;;;;;8.82;5.18;;;36.10;70.80;;;;;;5028892;28;20073;-64
2023/09/09 08:44:14;;;;;;;7.95;5.38;;;36.70;67.20;;;;;;5030320;28;20021;-64
2023/09/09 08:46:40;;;;;;;6.55;5.30;;;37.60;66.40;;;;;;5018321;28;20033;-64
2023/09/09 08:49:11;;;;;;;5.10;4.60;;;37.60;64.90;;;;;;5018364;28;20025;-64
2023/09/09 08:52:08;;;;;;;7.18;4.82;;;38.20;63.20;;;;;;5015099;28;20044;-65
2023/09/09 08:54:34;;;;;;;8.27;5.00;;;38.60;62.30;;;;;;5013767;28;20026;-64
2023/09/09 08:57:02;;;;;;;6.10;4.20;;;38.70;61.60;;;;;;5017778;28;20053;-65
2023/09/09 08:59:29;;;;;;;10.38;4.57;;;39.00;60.30;;;;;;5023593;28;20844;-65
2023/09/09 09:01:56;;;;;;;9.50;4.63;;;39.60;60.00;;;;;;5022438;28;20099;-65
2023/09/09 09:04:22;;;;;;;7.80;5.13;;;39.60;59.40;;;;;;5032578;28;20484;-65
2023/09/09 09:06:48;;;;;;;6.35;5.20;;;39.80;58.70;;;;;;5032890;28;20013;-64
2023/09/09 09:09:17;;;;;;;6.35;4.88;;;39.20;60.20;;;;;;5036782;28;20096;-64
2023/09/09 09:11:44;;;;;;;5.15;4.68;;;39.10;59.00;;;;;;5032754;28;20034;-64
2023/09/09 09:14:09;;;;;;;7.22;4.95;;;39.10;59.40;;;;;;5033257;28;20033;-64
2023/09/09 09:16:40;;;;;;;5.68;4.10;;;39.30;59.30;;;;;;5032363;28;20391;-64
2023/09/09 09:19:05;;;;;;;6.40;5.20;;;39.30;57.80;;;;;;5045150;28;20068;-64
2023/09/09 09:21:35;;;;;;;5.07;3.85;;;39.00;59.40;;;;;;5032602;28;20111;-64
2023/09/09 09:24:04;;;;;;;4.78;4.32;;;39.90;56.20;;;;;;5024017;28;20022;-65
2023/09/09 09:26:30;;;;;;;6.78;4.22;;;40.00;59.20;;;;;;5030824;28;20053;-65
2023/09/09 09:28:56;;;;;;;6.28;4.20;;;40.30;56.80;;;;;;5026136;28;20123;-65
2023/09/09 09:31:23;;;;;;;4.90;4.20;;;40.70;57.40;;;;;;5023554;28;20140;-65
2023/09/09 09:33:53;;;;;;;5.00;4.47;;;40.90;55.90;;;;;;5046033;28;20116;-65
2023/09/09 09:36:22;;;;;;;4.18;3.42;;;41.60;54.90;;;;;;5029209;28;20172;-65
2023/09/09 09:38:49;;;;;;;5.15;3.65;;;41.70;53.90;;;;;;5027404;28;20029;-65
2023/09/09 09:41:16;;;;;;;3.88;3.58;;;41.70;53.20;;;;;;5028092;28;20030;-65
2023/09/09 09:43:42;;;;;;;5.03;3.85;;;41.90;54.40;;;;;;5033174;28;20213;-65
2023/09/09 09:46:21;;;;;;;5.32;4.03;;;42.20;52.00;;;;;;5021655;28;20584;-65
2023/09/09 09:48:47;;;;;;;7.43;3.70;;;41.90;52.00;;;;;;5032051;28;20028;-65
2023/09/09 09:51:13;;;;;;;5.20;3.88;;;42.20;50.70;;;;;;5024451;28;20033;-65
2023/09/09 09:53:48;;;;;;;6.78;3.90;;;42.00;51.50;;;;;;5031348;28;20017;-65
2023/09/09 09:56:15;;;;;;;3.90;3.50;;;41.70;51.40;;;;;;5027207;28;20459;-65
2023/09/09 09:58:44;;;;;;;3.83;3.53;;;42.00;50.60;;;;;;5030538;28;20033;-65
2023/09/09 10:01:10;;;;;;;5.20;3.90;;;41.40;52.40;;;;;;5022202;28;20156;-66
2023/09/09 10:03:57;;;;;;;7.60;4.30;;;41.40;53.70;;;;;;5032506;28;20032;-65
2023/09/09 10:06:27;;;;;;;5.43;3.70;;;41.50;54.40;;;;;;5029468;28;20083;-65
2023/09/09 10:09:19;;;;;;;4.97;3.88;;;41.40;50.10;;;;;;5043959;28;20155;-65
2023/09/09 10:11:59;;;;;;;4.80;3.95;;;41.60;48.70;;;;;;5022360;28;20117;-65
2023/09/09 10:14:27;;;;;;;4.70;3.72;;;41.50;53.50;;;;;;5025479;28;20496;-65
2023/09/09 10:16:56;;;;;;;5.30;3.85;;;41.60;51.90;;;;;;5030894;28;20177;-65
2023/09/09 10:19:23;;;;;;;3.75;3.45;;;41.70;50.20;;;;;;5025060;28;20563;-65
2023/09/09 10:21:50;;;;;;;6.95;3.58;;;41.50;49.60;;;;;;5037607;28;20212;-65
2023/09/09 10:24:18;;;;;;;3.73;3.43;;;41.40;48.00;;;;;;5021352;28;20379;-65
2023/09/09 10:26:45;;;;;;;3.80;3.40;;;41.70;49.30;;;;;;5027916;28;20152;-65
2023/09/09 10:29:11;;;;;;;7.25;4.18;;;42.20;49.40;;;;;;5031188;28;20383;-65
2023/09/09 10:31:38;;;;;;;6.55;3.80;;;41.50;51.30;;;;;;5026405;28;20451;-65
2023/09/09 10:34:05;;;;;;;3.80;3.22;;;41.90;48.50;;;;;;5047340;28;20116;-65
2023/09/09 10:36:35;;;;;;;6.35;3.55;;;41.70;48.80;;;;;;5043292;28;20141;-65
2023/09/09 10:39:01;;;;;;;4.45;3.55;;;41.60;49.40;;;;;;5035753;28;20025;-65
2023/09/09 10:41:26;;;;;;;6.22;3.83;;;41.70;49.50;;;;;;5027662;28;20025;-65
2023/09/09 10:43:52;;;;;;;4.45;3.30;;;41.90;49.10;;;;;;5025292;28;20025;-65
2023/09/09 10:46:32;;;;;;;3.83;3.53;;;42.10;49.10;;;;;;5028788;28;20025;-65
2023/09/09 10:49:01;;;;;;;4.40;3.30;;;43.00;48.70;;;;;;5021982;28;20032;-65
2023/09/09 10:51:28;;;;;;;8.07;3.97;;;42.10;47.70;;;;;;5030590;28;20033;-65
2023/09/09 10:54:08;;;;;;;5.38;3.83;;;41.60;49.00;;;;;;5027055;28;20221;-65
2023/09/09 10:56:33;;;;;;;6.38;4.68;;;42.10;49.00;;;;;;5029266;28;20014;-65
2023/09/09 10:59:15;;;;;;;5.88;3.40;;;42.10;49.60;;;;;;5024037;28;20360;-65
2023/09/09 11:01:40;;;;;;;5.47;3.20;;;41.80;47.30;;;;;;5025054;28;20033;-65
2023/09/09 11:04:20;;;;;;;7.03;3.25;;;40.80;48.30;;;;;;5029721;28;20036;-65
2023/09/09 11:07:07;;;;;;;4.72;3.22;;;41.10;48.40;;;;;;5024599;28;20025;-65
2023/09/09 11:09:32;;;;;;;4.05;3.35;;;41.10;49.30;;;;;;5022885;28;20030;-65
2023/09/09 11:11:58;;;;;;;5.55;3.40;;;41.10;49.20;;;;;;5021207;28;20029;-65
2023/09/09 11:14:31;;;;;;;5.35;3.10;;;41.50;48.90;;;;;;5026981;28;20391;-65
2023/09/09 11:16:57;;;;;;;7.38;3.33;;;41.70;49.40;;;;;;5029798;28;20053;-66
2023/09/09 11:19:24;;;;;;;4.82;3.35;;;41.70;49.10;;;;;;5030130;28;20506;-66
2023/09/09 11:21:51;;;;;;;5.05;3.30;;;42.00;49.60;;;;;;5030974;28;20651;-65
2023/09/09 11:24:17;;;;;;;4.72;3.38;;;41.90;48.70;;;;;;5027329;28;20406;-66
2023/09/09 11:26:48;;;;;;;4.30;3.30;;;41.80;48.30;;;;;;5029440;28;20434;-65
2023/09/09 11:29:15;;;;;;;4.70;3.30;;;42.10;49.10;;;;;;5030359;28;20624;-66
2023/09/09 11:31:41;;;;;;;7.22;3.40;;;41.90;47.70;;;;;;5027401;28;20036;-65
2023/09/09 11:34:06;;;;;;;3.60;3.22;;;41.40;47.00;;;;;;5022908;28;20027;-66
2023/09/09 11:36:32;;;;;;;3.50;3.20;;;41.60;47.60;;;;;;5029543;28;20029;-66
2023/09/09 11:39:00;;;;;;;3.38;3.08;;;41.50;48.10;;;;;;5029301;28;20564;-66
2023/09/09 11:41:27;;;;;;;5.27;3.00;;;41.80;48.60;;;;;;5043908;28;20083;-66
2023/09/09 11:44:00;;;;;;;4.90;3.30;;;41.90;46.10;;;;;;5027433;28;20029;-65
2023/09/09 11:46:27;;;;;;;5.22;3.30;;;42.60;48.20;;;;;;5029176;28;20026;-66
2023/09/09 11:48:53;;;;;;;4.32;3.58;;;42.50;44.80;;;;;;5021990;28;20096;-66
2023/09/09 11:51:20;;;;;;;6.85;3.47;;;41.80;45.80;;;;;;5030272;28;20109;-66
2023/09/09 11:53:46;;;;;;;4.82;3.03;;;41.50;44.90;;;;;;5023341;28;20032;-66
2023/09/09 11:56:15;;;;;;;3.40;3.10;;;41.40;46.00;;;;;;5023961;28;20026;-65
2023/09/09 11:58:41;;;;;;;5.07;3.30;;;41.70;46.10;;;;;;5028143;28;20037;-65
2023/09/09 12:01:08;;;;;;;4.68;3.40;;;42.20;46.10;;;;;;5029475;28;20021;-65
2023/09/09 12:03:34;;;;;;;6.60;3.72;;;42.20;48.10;;;;;;5014767;28;20022;-65
2023/09/09 12:06:01;;;;;;;7.57;3.45;;;42.50;45.50;;;;;;5023310;28;20025;-65
2023/09/09 12:08:27;;;;;;;5.30;3.70;;;42.60;45.20;;;;;;5020535;28;20511;-65
2023/09/09 12:10:56;;;;;;;6.72;3.40;;;42.00;45.50;;;;;;5020802;28;20083;-65
2023/09/09 12:13:22;;;;;;;4.18;3.35;;;41.50;47.70;;;;;;5015723;28;20022;-65
2023/09/09 12:15:48;;;;;;;7.82;4.25;;;41.00;47.10;;;;;;5021332;28;20118;-65
2023/09/09 12:18:14;;;;;;;6.57;3.80;;;40.00;49.60;;;;;;5026014;28;20034;-65
2023/09/09 12:21:06;;;;;;;6.53;3.70;;;39.60;47.90;;;;;;5021259;28;20057;-64
2023/09/09 12:23:40;;;;;;;7.50;3.95;;;39.40;49.70;;;;;;5037682;28;20026;-64
2023/09/09 12:26:17;;;;;;;7.03;4.50;;;39.10;49.70;;;;;;5038689;28;20037;-64
2023/09/09 12:29:02;;;;;;;5.40;4.53;;;38.70;48.60;;;;;;5022355;28;20052;-64
2023/09/09 12:31:28;;;;;;;5.10;4.18;;;38.20;49.40;;;;;;5027844;28;20037;-64
2023/09/09 12:33:54;;;;;;;5.50;4.43;;;37.50;48.80;;;;;;5027579;28;20221;-63
2023/09/09 12:36:20;;;;;;;6.35;4.30;;;37.30;51.10;;;;;;5023154;28;20052;-64